Time,TemperatureF,DewpointF,PressureIn,WindDirection,WindDirectionDegrees,WindSpeedMPH,WindSpeedGustMPH,Humidity,HourlyPrecipIn,Conditions,Clouds,dailyrainin,SoftwareType,DateUTC
2013-08-11 00:01:00,70.0,62.0,30.18,SSE,158,0.0,0.9,76,0.00,,,0.00,WUHU216HW,2013-08-11 05:01:00,
2013-08-11 00:06:00,69.8,61.8,30.18,SSE,158,0.0,0.4,76,0.00,,,0.00,WUHU216HW,2013-08-11 05:06:00,
2013-08-11 00:11:00,69.7,61.7,30.18,SSE,158,0.0,0.0,76,0.00,,,0.00,WUHU216HW,2013-08-11 05:11:00,
2013-08-11 00:16:00,69.5,61.9,30.18,SE,135,0.4,0.4,77,0.00,,,0.00,WUHU216HW,2013-08-11 05:16:00,
2013-08-11 00:21:00,69.3,61.7,30.18,SE,135,0.4,0.7,77,0.00,,,0.00,WUHU216HW,2013-08-11 05:21:00,
2013-08-11 00:26:00,69.3,61.7,30.18,SE,135,0.4,0.9,77,0.00,,,0.00,WUHU216HW,2013-08-11 05:26:00,
2013-08-11 00:31:00,69.3,61.7,30.18,SE,135,0.7,1.1,77,0.00,,,0.00,WUHU216HW,2013-08-11 05:31:00,
2013-08-11 00:36:00,69.1,61.6,30.17,SE,135,0.9,1.3,77,0.00,,,0.00,WUHU216HW,2013-08-11 05:36:00,
2013-08-11 00:42:00,68.6,61.5,30.18,East,90,0.4,1.3,78,0.00,,,0.00,WUHU216HW,2013-08-11 05:42:00,
2013-08-11 00:47:00,68.6,61.5,30.18,East,90,0.7,1.1,78,0.00,,,0.00,WUHU216HW,2013-08-11 05:47:00,
2013-08-11 00:52:00,68.6,61.8,30.18,SE,135,1.1,1.1,79,0.00,,,0.00,WUHU216HW,2013-08-11 05:52:00,
2013-08-11 00:57:00,68.6,61.8,30.18,SE,135,1.8,2.0,79,0.00,,,0.00,WUHU216HW,2013-08-11 05:57:00,
2013-08-11 01:02:00,68.6,61.8,30.18,ESE,113,0.9,2.0,79,0.00,,,0.00,WUHU216HW,2013-08-11 06:02:00,
2013-08-11 01:07:00,68.8,61.7,30.18,SE,135,0.0,1.8,78,0.00,,,0.00,WUHU216HW,2013-08-11 06:07:00,
2013-08-11 01:13:00,68.6,61.5,30.18,SE,135,0.0,0.4,78,0.00,,,0.00,WUHU216HW,2013-08-11 06:13:00,
2013-08-11 01:18:00,68.6,61.5,30.18,SE,135,0.0,0.0,78,0.00,,,0.00,WUHU216HW,2013-08-11 06:18:00,
2013-08-11 01:23:00,68.6,61.5,30.18,SE,135,0.0,0.0,78,0.00,,,0.00,WUHU216HW,2013-08-11 06:23:00,
2013-08-11 01:44:00,68.2,61.6,30.18,ENE,68,0.0,0.0,79,0.00,,,0.00,WUHU216HW,2013-08-11 06:44:00,
2013-08-11 01:49:00,68.2,61.1,30.18,East,90,0.0,0.0,78,0.00,,,0.00,WUHU216HW,2013-08-11 06:49:00,
2013-08-11 01:54:00,68.0,61.0,30.18,East,90,0.0,0.0,78,0.00,,,0.00,WUHU216HW,2013-08-11 06:54:00,
2013-08-11 01:59:00,67.9,60.9,30.18,SSE,158,0.0,0.0,78,0.00,,,0.00,WUHU216HW,2013-08-11 06:59:00,
2013-08-11 02:04:00,67.3,60.7,30.18,SSE,158,0.0,0.0,79,0.00,,,0.00,WUHU216HW,2013-08-11 07:04:00,
2013-08-11 02:10:00,67.1,60.5,30.18,SSE,158,0.0,0.0,79,0.00,,,0.00,WUHU216HW,2013-08-11 07:10:00,
2013-08-11 02:15:00,67.1,60.5,30.18,SSE,158,0.0,0.0,79,0.00,,,0.00,WUHU216HW,2013-08-11 07:15:00,
2013-08-11 02:20:00,67.3,60.7,30.19,SE,135,0.7,0.7,79,0.00,,,0.00,WUHU216HW,2013-08-11 07:20:00,
2013-08-11 02:25:00,67.3,60.7,30.18,ESE,113,0.0,0.9,79,0.00,,,0.00,WUHU216HW,2013-08-11 07:25:00,
2013-08-11 02:30:00,67.1,60.5,30.18,ESE,113,0.0,0.7,79,0.00,,,0.00,WUHU216HW,2013-08-11 07:30:00,
2013-08-11 02:35:00,67.1,60.5,30.18,ESE,113,0.0,0.2,79,0.00,,,0.00,WUHU216HW,2013-08-11 07:35:00,
2013-08-11 02:40:00,67.1,60.5,30.18,SE,135,1.1,1.1,79,0.00,,,0.00,WUHU216HW,2013-08-11 07:40:00,
2013-08-11 02:46:00,67.3,60.7,30.18,SE,135,0.2,1.3,79,0.00,,,0.00,WUHU216HW,2013-08-11 07:46:00,
2013-08-11 02:51:00,67.3,60.7,30.18,East,90,0.4,1.3,79,0.00,,,0.00,WUHU216HW,2013-08-11 07:51:00,
2013-08-11 02:56:00,67.1,60.5,30.18,ENE,68,0.0,0.7,79,0.00,,,0.00,WUHU216HW,2013-08-11 07:56:00,
2013-08-11 03:01:00,67.0,60.3,30.18,ENE,68,0.4,0.7,79,0.00,,,0.00,WUHU216HW,2013-08-11 08:01:00,
2013-08-11 03:06:00,66.8,60.1,30.18,ENE,68,0.0,0.7,79,0.00,,,0.00,WUHU216HW,2013-08-11 08:06:00,
2013-08-11 03:12:00,66.6,60.0,30.18,ENE,68,0.4,0.4,79,0.00,,,0.00,WUHU216HW,2013-08-11 08:12:00,
2013-08-11 03:17:00,66.6,60.3,30.18,ENE,68,0.0,0.7,80,0.00,,,0.00,WUHU216HW,2013-08-11 08:17:00,
2013-08-11 03:22:00,66.6,60.3,30.18,ENE,68,0.0,0.7,80,0.00,,,0.00,WUHU216HW,2013-08-11 08:22:00,
2013-08-11 03:27:00,66.6,60.0,30.18,ESE,113,0.0,0.7,79,0.00,,,0.00,WUHU216HW,2013-08-11 08:27:00,
2013-08-11 03:32:00,66.2,59.9,30.18,SSW,203,0.7,0.9,80,0.00,,,0.00,WUHU216HW,2013-08-11 08:32:00,
2013-08-11 03:37:00,65.2,58.9,30.18,SW,225,0.0,0.9,80,0.00,,,0.00,WUHU216HW,2013-08-11 08:37:00,
2013-08-11 03:43:00,64.8,58.5,30.18,SW,225,0.0,0.7,80,0.00,,,0.00,WUHU216HW,2013-08-11 08:43:00,
2013-08-11 03:48:00,65.0,58.7,30.18,SW,225,0.0,0.0,80,0.00,,,0.00,WUHU216HW,2013-08-11 08:48:00,
2013-08-11 03:53:00,65.2,58.9,30.18,SW,225,0.0,0.0,80,0.00,,,0.00,WUHU216HW,2013-08-11 08:53:00,
2013-08-11 03:58:00,65.2,58.9,30.18,SSW,203,0.0,0.0,80,0.00,,,0.00,WUHU216HW,2013-08-11 08:58:00,
2013-08-11 04:03:00,65.2,58.9,30.18,SSW,203,0.0,0.0,80,0.00,,,0.00,WUHU216HW,2013-08-11 09:03:00,
2013-08-11 04:08:00,65.3,59.0,30.18,SSW,203,0.0,0.2,80,0.00,,,0.00,WUHU216HW,2013-08-11 09:08:00,
2013-08-11 04:14:00,65.5,59.2,30.18,SSW,203,0.0,0.2,80,0.00,,,0.00,WUHU216HW,2013-08-11 09:14:00,
2013-08-11 04:19:00,65.5,59.2,30.18,SSW,203,0.0,0.0,80,0.00,,,0.00,WUHU216HW,2013-08-11 09:19:00,
2013-08-11 04:24:00,65.2,58.9,30.19,SSW,203,0.0,0.0,80,0.00,,,0.00,WUHU216HW,2013-08-11 09:24:00,
2013-08-11 04:29:00,65.2,58.9,30.18,South,180,0.0,0.4,80,0.00,,,0.00,WUHU216HW,2013-08-11 09:29:00,
2013-08-11 04:35:00,65.2,58.9,30.18,South,180,0.0,0.4,80,0.00,,,0.00,WUHU216HW,2013-08-11 09:35:00,
2013-08-11 04:40:00,65.2,58.9,30.18,South,180,0.0,0.0,80,0.00,,,0.00,WUHU216HW,2013-08-11 09:40:00,
2013-08-11 04:45:00,64.8,58.5,30.18,SSE,158,0.4,0.4,80,0.00,,,0.00,WUHU216HW,2013-08-11 09:45:00,
2013-08-11 04:50:00,64.8,58.5,30.17,SE,135,1.3,1.3,80,0.00,,,0.00,WUHU216HW,2013-08-11 09:50:00,
2013-08-11 04:55:00,64.4,58.5,30.17,SE,135,2.2,2.5,81,0.00,,,0.00,WUHU216HW,2013-08-11 09:55:00,
2013-08-11 05:00:00,64.4,58.5,30.17,SE,135,2.2,2.5,81,0.00,,,0.00,WUHU216HW,2013-08-11 10:00:00,
2013-08-11 05:25:00,64.3,58.3,30.16,SE,135,0.0,0.0,81,0.00,,,0.00,WUHU216HW,2013-08-11 10:25:00,
2013-08-11 05:30:00,64.3,58.3,30.16,ENE,68,0.4,0.4,81,0.00,,,0.00,WUHU216HW,2013-08-11 10:30:00,
2013-08-11 05:35:00,64.3,58.3,30.16,ENE,68,0.4,0.4,81,0.00,,,0.00,WUHU216HW,2013-08-11 10:35:00,
2013-08-11 05:41:00,64.1,58.2,30.16,East,90,0.2,0.4,81,0.00,,,0.00,WUHU216HW,2013-08-11 10:41:00,
2013-08-11 05:46:00,64.1,57.8,30.16,East,90,0.7,0.7,80,0.00,,,0.00,WUHU216HW,2013-08-11 10:46:00,
2013-08-11 05:51:00,64.1,58.2,30.16,East,90,0.4,0.7,81,0.00,,,0.00,WUHU216HW,2013-08-11 10:51:00,
2013-08-11 05:56:00,63.9,58.0,30.17,ENE,68,0.7,0.9,81,0.00,,,0.00,WUHU216HW,2013-08-11 10:56:00,
2013-08-11 06:01:00,63.7,57.8,30.17,ENE,68,0.4,0.9,81,0.00,,,0.00,WUHU216HW,2013-08-11 11:01:00,
2013-08-11 06:06:00,63.7,57.4,30.17,ENE,68,0.0,0.7,80,0.00,,,0.00,WUHU216HW,2013-08-11 11:06:00,
2013-08-11 06:11:00,63.9,57.6,30.17,ENE,68,0.0,0.0,80,0.00,,,0.00,WUHU216HW,2013-08-11 11:11:00,
2013-08-11 06:17:00,64.1,57.8,30.17,ENE,68,0.0,0.0,80,0.00,,,0.00,WUHU216HW,2013-08-11 11:17:00,
2013-08-11 06:22:00,63.7,57.4,30.17,East,90,0.0,0.0,80,0.00,,,0.00,WUHU216HW,2013-08-11 11:22:00,
2013-08-11 06:27:00,63.5,57.2,30.18,East,90,0.0,0.0,80,0.00,,,0.00,WUHU216HW,2013-08-11 11:27:00,
2013-08-11 06:32:00,63.5,57.6,30.18,ENE,68,0.0,0.4,81,0.00,,,0.00,WUHU216HW,2013-08-11 11:32:00,
2013-08-11 06:37:00,63.7,57.8,30.18,East,90,0.0,0.4,81,0.00,,,0.00,WUHU216HW,2013-08-11 11:37:00,
2013-08-11 06:42:00,63.7,57.8,30.18,East,90,0.0,0.0,81,0.00,,,0.00,WUHU216HW,2013-08-11 11:42:00,
2013-08-11 06:47:00,63.5,57.6,30.18,East,90,0.2,0.4,81,0.00,,,0.00,WUHU216HW,2013-08-11 11:47:00,
2013-08-11 06:52:00,63.7,57.8,30.17,ESE,113,0.0,0.4,81,0.00,,,0.00,WUHU216HW,2013-08-11 11:52:00,
2013-08-11 06:57:00,63.9,58.0,30.17,ESE,113,0.4,0.4,81,0.00,,,0.00,WUHU216HW,2013-08-11 11:57:00,
2013-08-11 07:02:00,64.1,58.2,30.17,SE,135,1.8,2.5,81,0.00,,,0.00,WUHU216HW,2013-08-11 12:02:00,
2013-08-11 07:07:00,64.1,58.2,30.17,South,180,0.0,2.5,81,0.00,,,0.00,WUHU216HW,2013-08-11 12:07:00,
2013-08-11 07:12:00,64.3,58.7,30.17,SSE,158,0.0,0.9,82,0.00,,,0.00,WUHU216HW,2013-08-11 12:12:00,
2013-08-11 07:17:00,64.4,58.9,30.17,ESE,113,0.0,0.2,82,0.00,,,0.00,WUHU216HW,2013-08-11 12:17:00,
2013-08-11 07:22:00,64.6,59.1,30.17,ESE,113,0.0,0.2,82,0.00,,,0.00,WUHU216HW,2013-08-11 12:22:00,
2013-08-11 07:27:00,64.6,59.1,30.17,ESE,113,1.3,1.6,82,0.00,,,0.00,WUHU216HW,2013-08-11 12:27:00,
2013-08-11 07:32:00,64.6,59.1,30.17,SE,135,0.4,1.6,82,0.00,,,0.00,WUHU216HW,2013-08-11 12:32:00,
2013-08-11 07:37:00,64.8,59.5,30.17,SE,135,0.7,1.3,83,0.00,,,0.00,WUHU216HW,2013-08-11 12:37:00,
2013-08-11 07:43:00,65.2,59.9,30.17,SE,135,1.3,1.8,83,0.00,,,0.00,WUHU216HW,2013-08-11 12:43:00,
2013-08-11 07:47:00,65.3,60.0,30.17,ESE,113,1.3,1.8,83,0.00,,,0.00,WUHU216HW,2013-08-11 12:47:00,
2013-08-11 07:53:00,65.9,60.6,30.17,SE,135,1.8,1.8,83,0.00,,,0.00,WUHU216HW,2013-08-11 12:53:00,
2013-08-11 07:58:00,66.2,60.6,30.17,SE,135,1.8,1.8,82,0.00,,,0.00,WUHU216HW,2013-08-11 12:58:00,
2013-08-11 08:03:00,66.4,60.8,30.17,SSE,158,2.2,2.2,82,0.00,,,0.00,WUHU216HW,2013-08-11 13:03:00,
2013-08-11 08:08:00,66.8,61.1,30.17,SSW,203,0.9,2.2,82,0.00,,,0.00,WUHU216HW,2013-08-11 13:08:00,
2013-08-11 08:13:00,67.0,61.0,30.17,South,180,0.9,2.0,81,0.00,,,0.00,WUHU216HW,2013-08-11 13:13:00,
2013-08-11 08:18:00,67.0,61.0,30.17,SSE,158,0.7,2.0,81,0.00,,,0.00,WUHU216HW,2013-08-11 13:18:00,
2013-08-11 08:23:00,67.1,61.2,30.17,SSW,203,1.1,1.8,81,0.00,,,0.00,WUHU216HW,2013-08-11 13:23:00,
2013-08-11 08:28:00,67.5,61.2,30.17,SSE,158,3.4,3.4,80,0.00,,,0.00,WUHU216HW,2013-08-11 13:28:00,
2013-08-11 08:33:00,67.7,61.4,30.17,SE,135,1.6,3.4,80,0.00,,,0.00,WUHU216HW,2013-08-11 13:33:00,
2013-08-11 08:38:00,68.0,61.4,30.17,SSW,203,1.3,2.5,79,0.00,,,0.00,WUHU216HW,2013-08-11 13:38:00,
2013-08-11 08:43:00,68.4,61.7,30.16,SSW,203,1.8,3.8,79,0.00,,,0.00,WUHU216HW,2013-08-11 13:43:00,
2013-08-11 08:48:00,68.8,61.3,30.16,South,180,4.0,4.0,77,0.00,,,0.00,WUHU216HW,2013-08-11 13:48:00,
2013-08-11 08:54:00,69.3,61.7,30.16,South,180,2.5,4.0,77,0.00,,,0.00,WUHU216HW,2013-08-11 13:54:00,
2013-08-11 08:59:00,69.5,61.6,30.16,SSE,158,3.4,5.4,76,0.00,,,0.00,WUHU216HW,2013-08-11 13:59:00,
2013-08-11 09:04:00,69.7,61.7,30.16,ESE,113,2.7,5.4,76,0.00,,,0.00,WUHU216HW,2013-08-11 14:04:00,
2013-08-11 09:09:00,69.8,61.5,30.16,South,180,3.6,6.9,75,0.00,,,0.00,WUHU216HW,2013-08-11 14:09:00,
2013-08-11 09:14:00,70.2,61.5,30.16,SE,135,3.4,6.9,74,0.00,,,0.00,WUHU216HW,2013-08-11 14:14:00,
2013-08-11 09:19:00,70.6,61.8,30.16,SSE,158,2.2,4.7,74,0.00,,,0.00,WUHU216HW,2013-08-11 14:19:00,
2013-08-11 09:24:00,70.9,62.2,30.16,SE,135,4.3,4.3,74,0.00,,,0.00,WUHU216HW,2013-08-11 14:24:00,
2013-08-11 09:29:00,71.3,62.6,30.16,South,180,3.1,4.3,74,0.00,,,0.00,WUHU216HW,2013-08-11 14:29:00,
2013-08-11 09:34:00,71.6,62.6,30.16,SW,225,1.6,4.3,73,0.00,,,0.00,WUHU216HW,2013-08-11 14:34:00,
2013-08-11 09:39:00,72.0,62.1,30.16,SE,135,5.4,5.4,71,0.00,,,0.00,WUHU216HW,2013-08-11 14:39:00,
2013-08-11 09:44:00,72.5,63.5,30.16,SW,225,1.6,5.4,73,0.00,,,0.00,WUHU216HW,2013-08-11 14:44:00,
2013-08-11 09:49:00,73.3,63.4,30.16,ESE,113,5.1,5.1,71,0.00,,,0.00,WUHU216HW,2013-08-11 14:49:00,
2013-08-11 09:54:00,72.9,62.6,30.17,South,180,2.0,5.4,70,0.00,,,0.00,WUHU216HW,2013-08-11 14:54:00,
2013-08-11 10:00:00,73.1,63.2,30.17,SSE,158,2.2,5.4,71,0.00,,,0.00,WUHU216HW,2013-08-11 15:00:00,
2013-08-11 10:05:00,73.6,63.4,30.17,SSE,158,2.7,4.0,70,0.00,,,0.00,WUHU216HW,2013-08-11 15:05:00,
2013-08-11 10:10:00,73.8,63.9,30.17,SSE,158,2.7,4.0,71,0.00,,,0.00,WUHU216HW,2013-08-11 15:10:00,
2013-08-11 10:15:00,74.5,63.7,30.17,SSE,158,3.4,4.0,69,0.00,,,0.00,WUHU216HW,2013-08-11 15:15:00,
2013-08-11 10:20:00,74.9,64.1,30.17,WSW,248,4.3,5.6,69,0.00,,,0.00,WUHU216HW,2013-08-11 15:20:00,
2013-08-11 10:25:00,75.4,62.8,30.17,WSW,248,6.0,6.0,65,0.00,,,0.00,WUHU216HW,2013-08-11 15:25:00,
2013-08-11 10:30:00,75.6,62.1,30.17,WSW,248,2.0,6.0,63,0.00,,,0.00,WUHU216HW,2013-08-11 15:30:00,
2013-08-11 10:35:00,75.8,61.8,30.17,SE,135,4.9,4.9,62,0.00,,,0.00,WUHU216HW,2013-08-11 15:35:00,
2013-08-11 10:41:00,76.1,62.2,30.17,SE,135,4.3,4.9,62,0.00,,,0.00,WUHU216HW,2013-08-11 15:41:00,
2013-08-11 10:46:00,76.7,63.1,30.17,SW,225,1.8,4.9,63,0.00,,,0.00,WUHU216HW,2013-08-11 15:46:00,
2013-08-11 10:51:00,77.4,62.9,30.17,SW,225,3.8,4.9,61,0.00,,,0.00,WUHU216HW,2013-08-11 15:51:00,
2013-08-11 10:56:00,77.6,62.6,30.17,SSW,203,4.5,6.7,60,0.00,,,0.00,WUHU216HW,2013-08-11 15:56:00,
2013-08-11 11:01:00,78.1,62.6,30.17,WSW,248,4.5,6.7,59,0.00,,,0.00,WUHU216HW,2013-08-11 16:01:00,
2013-08-11 11:07:00,78.5,63.5,30.17,SW,225,1.8,5.6,60,0.00,,,0.00,WUHU216HW,2013-08-11 16:07:00,
2013-08-11 11:12:00,79.6,63.6,30.17,ESE,113,6.0,6.0,58,0.00,,,0.00,WUHU216HW,2013-08-11 16:12:00,
2013-08-11 11:17:00,80.3,63.6,30.17,WSW,248,5.1,6.9,57,0.00,,,0.00,WUHU216HW,2013-08-11 16:17:00,
2013-08-11 11:22:00,80.8,64.6,30.17,SW,225,5.4,6.9,58,0.00,,,0.00,WUHU216HW,2013-08-11 16:22:00,
2013-08-11 11:27:00,81.2,63.4,30.17,SW,225,6.3,6.3,55,0.00,,,0.00,WUHU216HW,2013-08-11 16:27:00,
2013-08-11 11:32:00,81.2,63.4,30.17,SW,225,6.3,6.3,55,0.00,,,0.00,WUHU216HW,2013-08-11 16:32:00,
2013-08-11 11:51:00,81.4,63.5,30.16,SE,135,6.5,6.5,55,0.00,,,0.00,WUHU216HW,2013-08-11 16:51:00,
2013-08-11 11:56:00,80.8,63.6,30.16,WSW,248,3.8,6.7,56,0.00,,,0.00,WUHU216HW,2013-08-11 16:56:00,
2013-08-11 12:01:00,80.5,63.8,30.16,SE,135,1.8,6.7,57,0.00,,,0.00,WUHU216HW,2013-08-11 17:01:00,
2013-08-11 12:06:00,81.0,65.4,30.16,SW,225,2.0,4.0,59,0.00,,,0.00,WUHU216HW,2013-08-11 17:06:00,
2013-08-11 12:11:00,81.5,65.3,30.16,SW,225,4.7,4.7,58,0.00,,,0.00,WUHU216HW,2013-08-11 17:11:00,
2013-08-11 12:16:00,81.5,65.3,30.16,SW,225,4.7,4.7,58,0.00,,,0.00,WUHU216HW,2013-08-11 17:16:00,
2013-08-11 12:36:00,83.9,66.0,30.16,SW,225,5.6,5.6,55,0.00,,,0.00,WUHU216HW,2013-08-11 17:36:00,
2013-08-11 12:41:00,83.9,64.9,30.16,West,270,4.7,6.3,53,0.00,,,0.00,WUHU216HW,2013-08-11 17:41:00,
2013-08-11 12:46:00,83.7,63.7,30.16,SW,225,5.8,7.2,51,0.00,,,0.00,WUHU216HW,2013-08-11 17:46:00,
2013-08-11 12:51:00,83.5,65.1,30.16,SW,225,6.5,7.2,54,0.00,,,0.00,WUHU216HW,2013-08-11 17:51:00,
2013-08-11 12:56:00,84.1,66.7,30.16,WSW,248,4.5,6.9,56,0.00,,,0.00,WUHU216HW,2013-08-11 17:56:00,
2013-08-11 13:02:00,84.1,65.6,30.15,SE,135,3.6,6.3,54,0.00,,,0.00,WUHU216HW,2013-08-11 18:02:00,
2013-08-11 13:07:00,84.1,66.2,30.15,SSW,203,3.6,8.3,55,0.00,,,0.00,WUHU216HW,2013-08-11 18:07:00,
2013-08-11 13:12:00,83.3,64.4,30.15,WSW,248,4.0,8.3,53,0.00,,,0.00,WUHU216HW,2013-08-11 18:12:00,
2013-08-11 13:17:00,83.9,64.9,30.15,WSW,248,3.4,7.8,53,0.00,,,0.00,WUHU216HW,2013-08-11 18:17:00,
2013-08-11 13:22:00,85.0,65.4,30.15,SSE,158,2.2,7.8,52,0.00,,,0.00,WUHU216HW,2013-08-11 18:22:00,
2013-08-11 13:27:00,84.8,65.8,30.16,SW,225,3.6,5.4,53,0.00,,,0.00,WUHU216HW,2013-08-11 18:27:00,
2013-08-11 13:32:00,85.3,65.7,30.15,SE,135,5.6,5.6,52,0.00,,,0.00,WUHU216HW,2013-08-11 18:32:00,
2013-08-11 13:37:00,85.3,65.7,30.15,SSE,158,4.7,6.9,52,0.00,,,0.00,WUHU216HW,2013-08-11 18:37:00,
2013-08-11 13:42:00,86.4,66.2,30.15,SW,225,4.0,6.9,51,0.00,,,0.00,WUHU216HW,2013-08-11 18:42:00,
2013-08-11 13:47:00,87.1,65.7,30.15,SSW,203,3.4,4.0,49,0.00,,,0.00,WUHU216HW,2013-08-11 18:47:00,
2013-08-11 13:52:00,87.1,65.7,30.15,SSE,158,2.7,6.5,49,0.00,,,0.00,WUHU216HW,2013-08-11 18:52:00,
2013-08-11 13:58:00,86.9,64.3,30.15,ESE,113,4.7,6.5,47,0.00,,,0.00,WUHU216HW,2013-08-11 18:58:00,
2013-08-11 14:03:00,86.0,65.3,30.14,SSW,203,4.5,7.2,50,0.00,,,0.00,WUHU216HW,2013-08-11 19:03:00,
2013-08-11 14:09:00,86.9,64.9,30.14,South,180,5.8,7.2,48,0.00,,,0.00,WUHU216HW,2013-08-11 19:09:00,
2013-08-11 14:14:00,86.6,65.2,30.14,SSE,158,2.9,5.8,49,0.00,,,0.00,WUHU216HW,2013-08-11 19:14:00,
2013-08-11 14:19:00,86.9,66.2,30.14,WNW,293,0.9,4.5,50,0.00,,,0.00,WUHU216HW,2013-08-11 19:19:00,
2013-08-11 14:24:00,88.7,66.5,30.14,South,180,4.3,6.3,48,0.00,,,0.00,WUHU216HW,2013-08-11 19:24:00,
2013-08-11 14:29:00,87.7,66.2,30.14,WSW,248,3.4,6.3,49,0.00,,,0.00,WUHU216HW,2013-08-11 19:29:00,
2013-08-11 14:34:00,86.4,65.7,30.14,SW,225,4.3,4.3,50,0.00,,,0.00,WUHU216HW,2013-08-11 19:34:00,
2013-08-11 14:40:00,86.4,66.2,30.13,SW,225,3.4,4.5,51,0.00,,,0.00,WUHU216HW,2013-08-11 19:40:00,
2013-08-11 14:45:00,87.8,67.0,30.13,South,180,2.9,4.7,50,0.00,,,0.00,WUHU216HW,2013-08-11 19:45:00,
2013-08-11 14:50:00,88.4,66.8,30.13,SSE,158,4.5,4.7,49,0.00,,,0.00,WUHU216HW,2013-08-11 19:50:00,
2013-08-11 14:55:00,89.5,66.5,30.13,ESE,113,2.5,4.5,47,0.00,,,0.00,WUHU216HW,2013-08-11 19:55:00,
2013-08-11 15:00:00,90.4,66.6,30.13,WNW,293,3.4,6.9,46,0.00,,,0.00,WUHU216HW,2013-08-11 20:00:00,
2013-08-11 15:05:00,91.4,68.2,30.13,WNW,293,2.5,6.9,47,0.00,,,0.00,WUHU216HW,2013-08-11 20:05:00,
2013-08-11 15:10:00,92.0,67.4,30.13,WNW,293,3.1,4.7,45,0.00,,,0.00,WUHU216HW,2013-08-11 20:10:00,
2013-08-11 15:15:00,92.9,66.3,30.13,ESE,113,3.4,4.7,42,0.00,,,0.00,WUHU216HW,2013-08-11 20:15:00,
2013-08-11 15:20:00,91.6,66.5,30.13,NW,315,1.8,4.9,44,0.00,,,0.00,WUHU216HW,2013-08-11 20:20:00,
2013-08-11 15:25:00,91.3,65.5,30.13,WSW,248,4.3,6.0,43,0.00,,,0.00,WUHU216HW,2013-08-11 20:25:00,
2013-08-11 15:31:00,91.4,67.0,30.12,SW,225,4.7,6.0,45,0.00,,,0.00,WUHU216HW,2013-08-11 20:31:00,
2013-08-11 15:36:00,91.1,66.0,30.12,WSW,248,3.1,6.0,44,0.00,,,0.00,WUHU216HW,2013-08-11 20:36:00,
2013-08-11 15:41:00,92.0,67.4,30.12,South,180,3.4,6.0,45,0.00,,,0.00,WUHU216HW,2013-08-11 20:41:00,
2013-08-11 15:47:00,92.2,67.6,30.12,SSW,203,3.4,5.8,45,0.00,,,0.00,WUHU216HW,2013-08-11 20:47:00,
2013-08-11 15:52:00,92.9,68.2,30.12,WSW,248,2.5,5.8,45,0.00,,,0.00,WUHU216HW,2013-08-11 20:52:00,
2013-08-11 15:57:00,92.9,67.0,30.12,WSW,248,4.5,6.3,43,0.00,,,0.00,WUHU216HW,2013-08-11 20:57:00,
2013-08-11 16:02:00,92.9,67.0,30.12,SW,225,2.2,6.3,43,0.00,,,0.00,WUHU216HW,2013-08-11 21:02:00,
2013-08-11 16:07:00,92.7,66.8,30.12,SW,225,4.0,5.6,43,0.00,,,0.00,WUHU216HW,2013-08-11 21:07:00,
2013-08-11 16:12:00,93.8,69.1,30.11,NW,315,1.8,4.7,45,0.00,,,0.00,WUHU216HW,2013-08-11 21:12:00,
2013-08-11 16:17:00,93.8,67.2,30.10,WSW,248,3.8,6.9,42,0.00,,,0.00,WUHU216HW,2013-08-11 21:17:00,
2013-08-11 16:22:00,91.6,65.8,30.10,SSW,203,4.3,6.9,43,0.00,,,0.00,WUHU216HW,2013-08-11 21:22:00,
2013-08-11 16:27:00,88.2,66.1,30.10,SW,225,5.6,6.3,48,0.00,,,0.00,WUHU216HW,2013-08-11 21:27:00,
2013-08-11 16:32:00,88.2,66.1,30.10,SW,225,5.6,6.3,48,0.00,,,0.00,WUHU216HW,2013-08-11 21:32:00,
2013-08-11 16:51:00,91.1,67.3,30.10,SSW,203,1.6,1.6,46,0.00,,,0.00,WUHU216HW,2013-08-11 21:51:00,
2013-08-11 16:56:00,92.3,66.5,30.10,West,270,6.7,6.7,43,0.00,,,0.00,WUHU216HW,2013-08-11 21:56:00,
2013-08-11 17:01:00,92.3,67.2,30.10,SW,225,3.4,6.7,44,0.00,,,0.00,WUHU216HW,2013-08-11 22:01:00,
2013-08-11 17:06:00,92.3,67.2,30.10,SW,225,3.4,3.8,44,0.00,,,0.00,WUHU216HW,2013-08-11 22:06:00,
2013-08-11 17:27:00,89.8,67.4,30.09,SSW,203,3.4,3.4,48,0.00,,,0.00,WUHU216HW,2013-08-11 22:27:00,
2013-08-11 17:32:00,90.4,67.3,30.09,SW,225,5.6,5.6,47,0.00,,,0.00,WUHU216HW,2013-08-11 22:32:00,
2013-08-11 17:37:00,90.0,66.3,30.09,NNW,338,1.8,5.6,46,0.00,,,0.00,WUHU216HW,2013-08-11 22:37:00,
2013-08-11 17:43:00,88.7,65.9,30.09,SE,135,2.5,4.5,47,0.00,,,0.00,WUHU216HW,2013-08-11 22:43:00,
2013-08-11 17:48:00,87.7,66.2,30.09,SW,225,2.7,4.5,49,0.00,,,0.00,WUHU216HW,2013-08-11 22:48:00,
2013-08-11 17:53:00,87.5,66.6,30.09,SW,225,4.5,4.5,50,0.00,,,0.00,WUHU216HW,2013-08-11 22:53:00,
2013-08-11 17:58:00,87.1,66.3,30.08,South,180,2.2,4.5,50,0.00,,,0.00,WUHU216HW,2013-08-11 22:58:00,
2013-08-11 18:03:00,86.8,66.5,30.08,SW,225,3.4,4.3,51,0.00,,,0.00,WUHU216HW,2013-08-11 23:03:00,
2013-08-11 18:09:00,86.4,66.2,30.08,SW,225,2.9,5.1,51,0.00,,,0.00,WUHU216HW,2013-08-11 23:09:00,
2013-08-11 18:14:00,86.2,66.1,30.08,SW,225,2.0,5.1,51,0.00,,,0.00,WUHU216HW,2013-08-11 23:14:00,
2013-08-11 18:19:00,85.9,66.3,30.08,SW,225,3.4,4.0,52,0.00,,,0.00,WUHU216HW,2013-08-11 23:19:00,
2013-08-11 18:24:00,85.7,66.6,30.08,WSW,248,1.6,3.6,53,0.00,,,0.00,WUHU216HW,2013-08-11 23:24:00,
2013-08-11 18:30:00,85.7,66.6,30.08,WSW,248,1.8,1.8,53,0.00,,,0.00,WUHU216HW,2013-08-11 23:30:00,
2013-08-11 18:35:00,85.9,67.2,30.07,SW,225,2.5,2.5,54,0.00,,,0.00,WUHU216HW,2013-08-11 23:35:00,
2013-08-11 18:40:00,85.7,67.2,30.07,SSW,203,2.0,2.5,54,0.00,,,0.00,WUHU216HW,2013-08-11 23:40:00,
2013-08-11 18:45:00,85.3,66.8,30.07,SSW,203,1.1,2.5,54,0.00,,,0.00,WUHU216HW,2013-08-11 23:45:00,
2013-08-11 18:50:00,85.0,67.0,30.06,South,180,0.9,1.8,55,0.00,,,0.00,WUHU216HW,2013-08-11 23:50:00,
2013-08-11 18:55:00,84.8,66.8,30.06,SSE,158,0.4,1.8,55,0.00,,,0.00,WUHU216HW,2013-08-11 23:55:00,
2013-08-11 19:00:00,84.8,67.3,30.07,SSW,203,0.4,1.1,56,0.00,,,0.00,WUHU216HW,2013-08-12 00:00:00,
2013-08-11 19:05:00,84.6,67.1,30.06,South,180,0.2,1.6,56,0.00,,,0.00,WUHU216HW,2013-08-12 00:05:00,
2013-08-11 19:10:00,84.2,67.4,30.06,SE,135,1.3,1.6,57,0.00,,,0.00,WUHU216HW,2013-08-12 00:10:00,
2013-08-11 19:15:00,83.9,67.5,30.06,SSE,158,1.3,1.3,58,0.00,,,0.00,WUHU216HW,2013-08-12 00:15:00,
2013-08-11 19:20:00,83.9,68.6,30.06,SW,225,1.1,1.3,60,0.00,,,0.00,WUHU216HW,2013-08-12 00:20:00,
2013-08-11 19:25:00,83.5,68.2,30.06,South,180,0.4,1.1,60,0.00,,,0.00,WUHU216HW,2013-08-12 00:25:00,
2013-08-11 19:30:00,83.3,67.5,30.06,SE,135,1.1,1.1,59,0.00,,,0.00,WUHU216HW,2013-08-12 00:30:00,
2013-08-11 19:35:00,83.2,68.3,30.05,SE,135,1.3,1.6,61,0.00,,,0.00,WUHU216HW,2013-08-12 00:35:00,
2013-08-11 19:40:00,83.0,67.1,30.06,SE,135,0.4,1.6,59,0.00,,,0.00,WUHU216HW,2013-08-12 00:40:00,
2013-08-11 19:46:00,82.8,67.5,30.06,SSE,158,0.4,1.1,60,0.00,,,0.00,WUHU216HW,2013-08-12 00:46:00,
2013-08-11 19:51:00,82.4,67.1,30.07,SSE,158,0.4,0.9,60,0.00,,,0.00,WUHU216HW,2013-08-12 00:51:00,
2013-08-11 19:56:00,82.3,67.4,30.07,SSE,158,1.1,1.3,61,0.00,,,0.00,WUHU216HW,2013-08-12 00:56:00,
2013-08-11 20:01:00,82.1,67.7,30.07,SE,135,0.4,1.8,62,0.00,,,0.00,WUHU216HW,2013-08-12 01:01:00,
2013-08-11 20:06:00,81.7,67.9,30.07,SSE,158,0.9,1.6,63,0.00,,,0.00,WUHU216HW,2013-08-12 01:06:00,
2013-08-11 20:11:00,81.5,67.2,30.08,SE,135,1.1,1.6,62,0.00,,,0.00,WUHU216HW,2013-08-12 01:11:00,
2013-08-11 20:17:00,81.0,67.2,30.08,SE,135,1.3,1.6,63,0.00,,,0.00,WUHU216HW,2013-08-12 01:17:00,
2013-08-11 20:22:00,81.0,67.2,30.08,ESE,113,0.0,1.3,63,0.00,,,0.00,WUHU216HW,2013-08-12 01:22:00,
2013-08-11 20:27:00,80.8,67.5,30.08,ESE,113,0.0,1.1,64,0.00,,,0.00,WUHU216HW,2013-08-12 01:27:00,
2013-08-11 20:33:00,80.6,67.3,30.08,ESE,113,0.0,0.0,64,0.00,,,0.00,WUHU216HW,2013-08-12 01:33:00,
2013-08-11 20:38:00,80.3,67.4,30.08,ESE,113,0.0,0.0,65,0.00,,,0.00,WUHU216HW,2013-08-12 01:38:00,
2013-08-11 20:43:00,79.9,67.1,30.08,ESE,113,0.0,0.0,65,0.00,,,0.00,WUHU216HW,2013-08-12 01:43:00,
2013-08-11 20:48:00,79.6,67.1,30.08,ESE,113,0.0,0.0,66,0.00,,,0.00,WUHU216HW,2013-08-12 01:48:00,
2013-08-11 20:53:00,79.2,66.9,30.08,ESE,113,0.0,0.0,66,0.00,,,0.00,WUHU216HW,2013-08-12 01:53:00,
2013-08-11 20:58:00,79.0,67.2,30.08,ESE,113,0.0,0.0,67,0.00,,,0.00,WUHU216HW,2013-08-12 01:58:00,
2013-08-11 21:04:00,78.8,67.3,30.08,ESE,113,0.2,0.2,68,0.00,,,0.00,WUHU216HW,2013-08-12 02:04:00,
2013-08-11 21:09:00,78.8,67.8,30.08,ESE,113,0.0,0.2,69,0.00,,,0.00,WUHU216HW,2013-08-12 02:09:00,
2013-08-11 21:14:00,78.8,67.8,30.08,ESE,113,0.0,0.0,69,0.00,,,0.00,WUHU216HW,2013-08-12 02:14:00,
2013-08-11 21:19:00,78.8,67.8,30.08,ESE,113,0.0,0.0,69,0.00,,,0.00,WUHU216HW,2013-08-12 02:19:00,
2013-08-11 21:43:00,77.8,67.6,30.08,ESE,113,0.7,0.7,71,0.00,,,0.00,WUHU216HW,2013-08-12 02:43:00,
2013-08-11 21:48:00,77.8,68.1,30.08,SE,135,1.3,1.3,72,0.00,,,0.00,WUHU216HW,2013-08-12 02:48:00,
2013-08-11 21:54:00,77.6,67.9,30.09,ESE,113,0.7,1.3,72,0.00,,,0.00,WUHU216HW,2013-08-12 02:54:00,
2013-08-11 21:59:00,77.6,67.9,30.09,East,90,0.7,0.7,72,0.00,,,0.00,WUHU216HW,2013-08-12 02:59:00,
2013-08-11 22:04:00,77.6,67.9,30.09,East,90,0.4,0.7,72,0.00,,,0.00,WUHU216HW,2013-08-12 03:04:00,
2013-08-11 22:09:00,77.6,67.9,30.09,East,90,0.0,0.7,72,0.00,,,0.00,WUHU216HW,2013-08-12 03:09:00,
2013-08-11 22:14:00,77.2,67.5,30.09,East,90,0.0,0.2,72,0.00,,,0.00,WUHU216HW,2013-08-12 03:14:00,
2013-08-11 22:19:00,77.0,67.3,30.09,East,90,0.0,0.0,72,0.00,,,0.00,WUHU216HW,2013-08-12 03:19:00,
2013-08-11 22:24:00,76.7,67.4,30.09,East,90,0.0,0.0,73,0.00,,,0.00,WUHU216HW,2013-08-12 03:24:00,
2013-08-11 22:30:00,76.5,67.6,30.09,ESE,113,0.0,0.0,74,0.00,,,0.00,WUHU216HW,2013-08-12 03:30:00,
2013-08-11 22:35:00,76.1,67.7,30.09,SE,135,0.0,0.2,75,0.00,,,0.00,WUHU216HW,2013-08-12 03:35:00,
2013-08-11 22:40:00,76.0,67.5,30.09,SE,135,0.0,0.0,75,0.00,,,0.00,WUHU216HW,2013-08-12 03:40:00,
2013-08-11 22:45:00,76.0,67.5,30.09,SE,135,0.0,0.0,75,0.00,,,0.00,WUHU216HW,2013-08-12 03:45:00,
2013-08-11 22:51:00,75.8,67.3,30.09,North,0,0.0,0.0,75,0.00,,,0.00,WUHU216HW,2013-08-12 03:51:00,
2013-08-11 22:57:00,76.0,67.5,30.09,ESE,113,0.0,0.0,75,0.00,,,0.00,WUHU216HW,2013-08-12 03:57:00,
2013-08-11 23:01:00,76.0,67.5,30.09,ESE,113,0.0,0.0,75,0.00,,,0.00,WUHU216HW,2013-08-12 04:01:00,
2013-08-11 23:04:00,76.0,67.5,30.09,North,0,0.0,0.0,75,0.00,,,0.00,WUHU216HW,2013-08-12 04:04:00,
2013-08-11 23:09:00,76.1,67.7,30.10,ESE,113,0.0,0.0,75,0.00,,,0.00,WUHU216HW,2013-08-12 04:09:00,
2013-08-11 23:14:00,76.1,67.7,30.10,North,0,0.0,0.0,75,0.00,,,0.00,WUHU216HW,2013-08-12 04:14:00,
2013-08-11 23:19:00,76.0,67.9,30.10,North,0,0.0,0.0,76,0.00,,,0.00,WUHU216HW,2013-08-12 04:19:00,
2013-08-11 23:24:00,75.6,68.0,30.10,North,0,0.0,0.0,77,0.00,,,0.00,WUHU216HW,2013-08-12 04:24:00,
2013-08-11 23:29:00,74.9,67.2,30.10,North,0,0.0,0.0,77,0.00,,,0.00,WUHU216HW,2013-08-12 04:29:00,
2013-08-11 23:34:00,74.5,66.9,30.10,North,0,0.0,0.0,77,0.00,,,0.00,WUHU216HW,2013-08-12 04:34:00,
2013-08-11 23:39:00,74.7,67.1,30.09,North,0,0.0,0.0,77,0.00,,,0.00,WUHU216HW,2013-08-12 04:39:00,
2013-08-11 23:44:00,74.7,67.1,30.09,North,0,0.0,0.0,77,0.00,,,0.00,WUHU216HW,2013-08-12 04:44:00,
2013-08-11 23:49:00,74.7,67.1,30.09,North,0,0.0,0.0,77,0.00,,,0.00,WUHU216HW,2013-08-12 04:49:00,
2013-08-11 23:54:00,74.7,67.4,30.09,North,0,0.0,0.0,78,0.00,,,0.00,WUHU216HW,2013-08-12 04:54:00,
2013-08-11 23:59:00,74.5,67.2,30.09,North,0,0.0,0.0,78,0.00,,,0.00,WUHU216HW,2013-08-12 04:59:00,